createdAt,value
2018-08-03T00:00:17.670Z,48.50
2018-08-03T00:05:21.314Z,48.90
2018-08-03T00:10:28.000Z,49.70
2018-08-03T00:15:31.816Z,50.20
2018-08-03T00:20:35.377Z,50.70
2018-08-03T00:25:42.766Z,51.00
2018-08-03T00:30:46.581Z,51.00
2018-08-03T00:35:50.159Z,51.20
2018-08-03T00:45:56.986Z,51.50
2018-08-03T00:51:01.663Z,51.20
2018-08-03T00:56:05.402Z,51.10
2018-08-03T01:01:08.975Z,51.90
2018-08-03T01:06:12.530Z,52.20
2018-08-03T01:11:16.094Z,52.90
2018-08-03T01:16:19.627Z,52.50
2018-08-03T01:21:23.476Z,53.10
2018-08-03T01:36:33.511Z,53.90
2018-08-03T01:41:37.078Z,53.70
2018-08-03T01:46:40.714Z,53.90
2018-08-03T01:51:44.255Z,53.80
2018-08-03T01:56:47.784Z,54.20
2018-08-03T02:01:51.441Z,54.10
2018-08-03T02:06:54.983Z,54.80
2018-08-03T02:11:58.553Z,55.20
2018-08-03T02:17:14.562Z,55.50
2018-08-03T02:22:18.706Z,55.10
2018-08-03T02:27:29.614Z,55.20
2018-08-03T02:32:33.138Z,55.70
2018-08-03T02:37:37.404Z,55.80
2018-08-03T02:42:41.239Z,56.00
2018-08-03T02:47:44.830Z,56.50
2018-08-03T02:52:48.373Z,56.80
2018-08-03T02:57:51.977Z,57.20
2018-08-03T03:02:55.592Z,57.50
2018-08-03T03:07:59.222Z,57.80
2018-08-03T03:13:02.819Z,57.80
2018-08-03T03:18:06.395Z,57.50
2018-08-03T03:23:09.957Z,57.90
2018-08-03T03:28:13.578Z,58.40
2018-08-03T03:33:17.155Z,58.50
2018-08-03T03:38:20.764Z,58.50
2018-08-03T03:43:24.337Z,58.60
2018-08-03T03:48:27.938Z,59.00
2018-08-03T03:53:31.586Z,58.90
2018-08-03T03:58:35.153Z,59.20
2018-08-03T04:03:39.558Z,58.40
2018-08-03T04:08:43.430Z,58.50
2018-08-03T04:13:46.976Z,58.80
2018-08-03T04:18:50.626Z,59.20
2018-08-03T04:23:54.228Z,59.60
2018-08-03T04:28:57.919Z,59.70
2018-08-03T04:34:01.466Z,59.80
2018-08-03T04:39:06.698Z,59.80
2018-08-03T04:44:10.253Z,59.50
2018-08-03T04:49:13.812Z,59.80
2018-08-03T04:54:17.367Z,59.70
2018-08-03T04:59:20.942Z,59.80
2018-08-03T05:04:24.495Z,59.90
2018-08-03T05:09:29.462Z,59.60
2018-08-03T05:14:33.070Z,59.40
2018-08-03T05:19:36.794Z,59.30
2018-08-03T05:24:40.634Z,59.60
2018-08-03T05:29:45.997Z,59.80
2018-08-03T05:34:49.586Z,60.20
2018-08-03T05:39:54.321Z,60.10
2018-08-03T05:44:57.898Z,59.90
2018-08-03T05:50:01.578Z,58.90
2018-08-03T05:55:05.501Z,58.60
2018-08-03T06:00:09.242Z,59.20
2018-08-03T06:05:12.842Z,58.20
2018-08-03T06:10:16.426Z,57.70
2018-08-03T06:15:20.012Z,57.10
2018-08-03T06:20:23.635Z,56.90
2018-08-03T06:25:27.257Z,56.40
2018-08-03T06:30:30.866Z,56.00
2018-08-03T06:35:34.475Z,55.70
2018-08-03T06:40:38.111Z,55.50
2018-08-03T06:45:41.707Z,54.80
2018-08-03T06:50:45.350Z,54.70
2018-08-03T06:55:48.934Z,53.80
2018-08-03T07:00:57.074Z,54.00
2018-08-03T07:06:00.679Z,53.40
2018-08-03T07:11:04.251Z,52.40
2018-08-03T07:16:07.831Z,52.30
2018-08-03T07:21:12.170Z,52.30
2018-08-03T07:26:15.772Z,51.70
2018-08-03T07:31:19.472Z,52.00
2018-08-03T07:36:23.070Z,51.40
2018-08-03T07:41:26.598Z,51.10
2018-08-03T07:46:30.183Z,50.90
2018-08-03T07:51:33.820Z,51.30
2018-08-03T07:56:37.376Z,51.50
2018-08-03T08:01:41.743Z,50.70
2018-08-03T08:06:45.292Z,51.00
2018-08-03T08:11:48.867Z,50.40
2018-08-03T08:16:52.480Z,50.00
2018-08-03T08:21:56.081Z,49.60
2018-08-03T08:26:59.630Z,49.10
2018-08-03T08:32:03.238Z,49.20
2018-08-03T08:37:06.916Z,49.30
2018-08-03T08:42:10.447Z,48.60
2018-08-03T08:47:14.098Z,49.00
2018-08-03T08:52:17.781Z,49.30
2018-08-03T08:57:21.346Z,49.70
2018-08-03T09:02:24.942Z,49.90
2018-08-03T09:07:28.571Z,50.10
2018-08-03T09:12:32.142Z,50.10
2018-08-03T09:17:35.668Z,49.40
2018-08-03T09:22:39.233Z,48.90
2018-08-03T09:27:42.799Z,48.90
2018-08-03T09:32:46.358Z,48.10
2018-08-03T09:37:50.486Z,46.90
2018-08-03T09:42:54.101Z,46.90
2018-08-03T09:47:57.718Z,47.30
2018-08-03T09:53:01.287Z,47.10
2018-08-03T09:58:05.409Z,47.00
2018-08-03T10:03:09.317Z,45.90
2018-08-03T10:08:12.881Z,45.50
2018-08-03T10:13:17.086Z,44.60
2018-08-03T10:18:20.653Z,43.60
2018-08-03T10:23:24.425Z,42.90
2018-08-03T10:28:28.001Z,42.40
2018-08-03T10:33:31.772Z,41.80
2018-08-03T10:38:35.329Z,40.10
2018-08-03T10:43:39.058Z,39.60
2018-08-03T10:48:42.670Z,39.00
2018-08-03T10:53:46.270Z,39.00
2018-08-03T10:58:51.524Z,37.80
2018-08-03T11:03:55.121Z,37.10
2018-08-03T11:08:58.670Z,36.60
2018-08-03T11:14:02.292Z,36.40
2018-08-03T11:19:05.961Z,36.10
2018-08-03T11:24:09.526Z,35.80
2018-08-03T11:29:13.059Z,35.50
2018-08-03T11:34:16.638Z,35.20
2018-08-03T11:39:20.211Z,35.40
2018-08-03T11:44:23.840Z,34.70
2018-08-03T11:49:27.421Z,33.70
2018-08-03T11:54:31.020Z,33.30
2018-08-03T11:59:34.641Z,33.20
2018-08-03T12:04:38.221Z,33.50
2018-08-03T12:09:41.827Z,32.40
2018-08-03T12:14:45.395Z,32.40
2018-08-03T12:19:48.940Z,33.10
2018-08-03T12:24:52.502Z,30.70
2018-08-03T12:29:56.196Z,29.60
2018-08-03T12:34:59.752Z,29.30
2018-08-03T12:40:03.639Z,29.00
2018-08-03T12:45:07.232Z,28.70
2018-08-03T12:50:10.809Z,28.00
2018-08-03T12:55:14.358Z,28.40
2018-08-03T13:00:17.907Z,28.60
2018-08-03T13:05:21.523Z,27.70
2018-08-03T13:10:25.087Z,28.10
2018-08-03T13:15:28.678Z,28.30
2018-08-03T13:20:32.254Z,27.30
2018-08-03T13:30:39.111Z,26.20
2018-08-03T13:35:42.727Z,27.60
2018-08-03T13:40:47.319Z,26.40
2018-08-03T13:45:51.079Z,26.60
2018-08-03T13:50:54.702Z,26.70
2018-08-03T13:55:58.349Z,26.00
2018-08-03T14:01:13.399Z,26.20
2018-08-03T14:06:16.983Z,26.50
2018-08-03T14:11:20.708Z,25.90
2018-08-03T14:16:24.311Z,25.80
2018-08-03T14:21:27.889Z,25.50
2018-08-03T14:26:31.442Z,25.90
2018-08-03T14:31:36.168Z,25.00
2018-08-03T14:41:43.086Z,26.00
2018-08-03T14:46:46.986Z,26.20
2018-08-03T14:51:50.634Z,25.80
2018-08-03T14:56:54.203Z,25.40
2018-08-03T15:01:57.802Z,25.10
2018-08-03T15:07:01.362Z,26.40
2018-08-03T15:17:08.184Z,26.50
2018-08-03T15:22:21.568Z,26.30
2018-08-03T15:27:25.142Z,26.50
2018-08-03T15:32:29.363Z,26.80
2018-08-03T15:37:32.931Z,26.60
2018-08-03T15:42:36.530Z,26.60
2018-08-03T15:47:40.114Z,27.00
2018-08-03T15:52:43.707Z,26.60
2018-08-03T15:57:47.268Z,26.50
2018-08-03T16:02:50.824Z,26.60
2018-08-03T16:07:54.363Z,26.70
2018-08-03T16:12:58.059Z,26.30
2018-08-03T16:18:01.658Z,26.50
2018-08-03T16:23:05.278Z,26.60
2018-08-03T16:28:08.865Z,27.00
2018-08-03T16:33:12.447Z,26.80
2018-08-03T16:38:15.986Z,27.50
2018-08-03T16:43:19.556Z,27.30
2018-08-03T16:48:23.165Z,27.50
2018-08-03T16:53:27.083Z,27.30
2018-08-03T16:58:30.650Z,27.90
2018-08-03T17:03:34.198Z,28.60
2018-08-03T17:08:37.746Z,28.70
2018-08-03T17:13:41.282Z,29.10
2018-08-03T17:18:44.824Z,29.40
2018-08-03T17:23:48.390Z,29.60
2018-08-03T17:28:52.216Z,29.20
2018-08-03T17:33:55.810Z,29.60
2018-08-03T17:38:59.356Z,29.80
2018-08-03T17:44:02.982Z,30.20
2018-08-03T17:49:06.591Z,29.90
2018-08-03T17:54:10.203Z,30.40
2018-08-03T17:59:16.564Z,30.10
2018-08-03T18:04:20.118Z,30.70
2018-08-03T18:09:23.689Z,31.30
2018-08-03T18:14:27.376Z,31.50
2018-08-03T18:19:30.946Z,31.90
2018-08-03T18:24:36.436Z,31.90
2018-08-03T18:29:40.910Z,32.30
2018-08-03T18:34:44.799Z,32.60
2018-08-03T18:39:49.039Z,32.90
2018-08-03T18:44:52.674Z,33.10
2018-08-03T18:49:56.286Z,33.60
2018-08-03T18:54:59.839Z,33.80
2018-08-03T19:00:03.472Z,33.90
2018-08-03T19:05:08.187Z,34.60
2018-08-03T19:10:11.780Z,36.00
2018-08-03T19:15:15.346Z,36.20
2018-08-03T19:20:18.970Z,37.20
2018-08-03T19:25:22.694Z,37.80
2018-08-03T19:30:26.316Z,37.40
2018-08-03T19:35:29.896Z,37.70
2018-08-03T19:40:33.434Z,37.80
2018-08-03T19:45:38.653Z,38.20
2018-08-03T19:50:42.319Z,38.70
2018-08-03T19:55:46.001Z,38.30
2018-08-03T20:00:50.019Z,39.00
2018-08-03T20:05:53.726Z,38.90
2018-08-03T20:10:59.439Z,39.20
2018-08-03T20:16:03.114Z,39.40
2018-08-03T20:21:06.724Z,39.70
2018-08-03T20:31:14.096Z,40.60
2018-08-03T20:36:17.958Z,40.50
2018-08-03T20:41:22.461Z,40.70
2018-08-03T20:46:26.416Z,40.90
2018-08-03T20:51:30.244Z,41.30
2018-08-03T20:56:33.794Z,41.30
2018-08-03T21:01:37.918Z,42.10
2018-08-03T21:06:41.472Z,43.10
2018-08-03T21:11:45.034Z,43.50
2018-08-03T21:16:48.631Z,41.90
2018-08-03T21:21:52.177Z,42.00
2018-08-03T21:26:55.774Z,42.10
2018-08-03T21:31:59.322Z,41.70
2018-08-03T21:37:03.025Z,41.90
2018-08-03T21:42:06.976Z,42.20
2018-08-03T21:47:10.562Z,42.20
2018-08-03T21:52:15.971Z,42.10
2018-08-03T21:57:20.034Z,42.60
2018-08-03T22:02:24.066Z,42.50
2018-08-03T22:07:27.825Z,42.40
2018-08-03T22:12:31.856Z,42.40
2018-08-03T22:17:35.446Z,42.60
2018-08-03T22:22:39.275Z,43.00
2018-08-03T22:27:42.878Z,43.30
2018-08-03T22:32:46.587Z,43.20
2018-08-03T22:37:50.122Z,43.60
2018-08-03T22:42:57.110Z,44.50
2018-08-03T22:48:00.652Z,45.70
2018-08-03T22:53:04.197Z,46.10
2018-08-03T23:03:10.974Z,46.90
2018-08-03T23:08:14.557Z,46.90
2018-08-03T23:13:18.466Z,47.10
2018-08-03T23:18:22.261Z,47.40
2018-08-03T23:23:25.814Z,47.40
2018-08-03T23:28:29.902Z,47.80
2018-08-03T23:33:33.446Z,47.80
2018-08-03T23:38:37.006Z,48.10
2018-08-03T23:43:40.584Z,48.30
2018-08-03T23:48:46.130Z,48.60
2018-08-03T23:53:51.660Z,49.10
2018-08-03T23:58:56.065Z,49.40
